createdAt,value
2023-04-01T00:01:08.066Z,99018.41
2023-04-01T00:03:36.388Z,99012.31
2023-04-01T00:06:04.333Z,99016.69
2023-04-01T00:08:32.026Z,99016.69
2023-04-01T00:10:59.982Z,99014.19
2023-04-01T00:13:27.600Z,99017.72
2023-04-01T00:15:57.570Z,99015.94
2023-04-01T00:18:25.742Z,99016.81
2023-04-01T00:20:53.847Z,99020.34
2023-04-01T00:23:22.004Z,99025.53
2023-04-01T00:25:50.559Z,99019.50
2023-04-01T00:28:20.474Z,99029.06
2023-04-01T00:30:48.917Z,99023.91
2023-04-01T00:33:17.607Z,99017.78
2023-04-01T00:35:45.764Z,99032.63
2023-04-01T00:38:13.973Z,99030.09
2023-04-01T00:40:45.538Z,99023.16
2023-04-01T00:43:20.328Z,99029.56
2023-04-01T00:45:50.595Z,99022.59
2023-04-01T00:48:26.528Z,99030.34
2023-04-01T00:51:03.528Z,99032.13
2023-04-01T00:53:34.948Z,99027.78
2023-04-01T00:56:12.881Z,99037.38
2023-04-01T00:58:47.456Z,99037.38
2023-04-01T01:01:15.814Z,99039.13
2023-04-01T01:03:43.446Z,99040.06
2023-04-01T01:06:56.194Z,99039.13
2023-04-01T01:09:43.273Z,99038.34
2023-04-01T01:12:22.100Z,99035.84
2023-04-01T01:15:10.276Z,99047.19
2023-04-01T01:18:02.592Z,99041.94
2023-04-01T01:21:21.000Z,99044.56
2023-04-01T01:24:09.982Z,99046.34
2023-04-01T01:26:55.301Z,99051.59
2023-04-01T01:29:57.209Z,99052.44
2023-04-01T01:33:08.512Z,99051.59
2023-04-01T01:35:45.717Z,99054.28
2023-04-01T01:38:22.479Z,99055.38
2023-04-01T01:41:15.170Z,99056.28
2023-04-01T01:43:49.521Z,99058.78
2023-04-01T01:46:27.078Z,99063.00
2023-04-01T01:48:57.633Z,99062.09
2023-04-01T01:51:28.463Z,99069.09
2023-04-01T01:53:57.101Z,99056.84
2023-04-01T01:56:30.268Z,99062.00
2023-04-01T01:59:08.773Z,99071.56
2023-04-01T02:01:45.403Z,99071.56
2023-04-01T02:04:18.322Z,99074.34
2023-04-01T02:07:20.751Z,99072.50
2023-04-01T02:09:49.676Z,99067.41
2023-04-01T02:12:21.023Z,99079.59
2023-04-01T02:15:01.312Z,99078.75
2023-04-01T02:17:33.537Z,99079.69
2023-04-01T02:20:10.480Z,99078.81
2023-04-01T02:22:45.436Z,99085.78
2023-04-01T02:25:19.476Z,99087.56
2023-04-01T02:27:48.166Z,99096.28
2023-04-01T02:30:18.549Z,99090.19
2023-04-01T02:32:48.162Z,99095.44
2023-04-01T02:35:18.868Z,99095.44
2023-04-01T02:37:51.532Z,99087.47
2023-04-01T02:40:20.018Z,99092.72
2023-04-01T02:42:47.875Z,99090.09
2023-04-01T02:45:16.080Z,99101.53
2023-04-01T02:47:44.187Z,99101.53
2023-04-01T02:50:12.250Z,99104.16
2023-04-01T02:52:40.000Z,99110.44
2023-04-01T02:55:09.229Z,99103.53
2023-04-01T02:57:37.133Z,99106.16
2023-04-01T03:00:11.760Z,99105.41
2023-04-01T03:02:40.544Z,99107.25
2023-04-01T03:05:08.991Z,99108.19
2023-04-01T03:07:36.938Z,99114.34
2023-04-01T03:10:05.950Z,99119.59
2023-04-01T03:12:33.922Z,99109.22
2023-04-01T03:15:10.949Z,99123.31
2023-04-01T03:17:40.729Z,99120.78
2023-04-01T03:20:11.734Z,99119.84
2023-04-01T03:22:42.638Z,99125.16
2023-04-01T03:25:11.542Z,99131.38
2023-04-01T03:27:39.912Z,99134.91
2023-04-01T03:30:10.576Z,99122.72
2023-04-01T03:32:46.722Z,99131.44
2023-04-01T03:35:14.788Z,99127.97
2023-04-01T03:37:42.480Z,99128.88
2023-04-01T03:40:11.151Z,99128.03
2023-04-01T03:42:39.013Z,99131.59
2023-04-01T03:45:07.647Z,99133.28
2023-04-01T03:47:35.562Z,99132.50
2023-04-01T03:50:03.714Z,99132.50
2023-04-01T03:52:31.404Z,99126.50
2023-04-01T03:54:59.414Z,99137.00
2023-04-01T03:57:27.483Z,99127.50
2023-04-01T03:59:59.196Z,99131.03
2023-04-01T04:02:27.922Z,99136.28
2023-04-01T04:04:55.835Z,99135.44
2023-04-01T04:07:23.800Z,99139.00
2023-04-01T04:10:04.940Z,99132.88
2023-04-01T04:12:53.579Z,99148.63
2023-04-01T04:15:43.330Z,99143.56
2023-04-01T04:18:31.090Z,99146.19
2023-04-01T04:21:18.841Z,99141.00
2023-04-01T04:24:07.322Z,99160.13
2023-04-01T04:27:14.787Z,99150.66
2023-04-01T04:30:18.144Z,99157.69
2023-04-01T04:33:06.438Z,99154.19
2023-04-01T04:35:57.820Z,99157.75
2023-04-01T04:38:45.889Z,99164.84
2023-04-01T04:41:35.335Z,99166.69
2023-04-01T04:44:05.774Z,99158.91
2023-04-01T04:46:34.226Z,99175.47
2023-04-01T04:49:11.725Z,99172.00
2023-04-01T04:51:39.494Z,99167.72
2023-04-01T04:54:08.512Z,99172.84
2023-04-01T04:56:57.474Z,99173.78
2023-04-01T04:59:27.173Z,99178.19
2023-04-01T05:02:07.378Z,99187.81
2023-04-01T05:04:37.266Z,99180.06
2023-04-01T05:07:06.707Z,99176.72
2023-04-01T05:09:35.324Z,99184.59
2023-04-01T05:12:04.313Z,99190.69
2023-04-01T05:14:49.332Z,99185.50
2023-04-01T05:17:16.990Z,99193.38
2023-04-01T05:19:44.552Z,99198.63
2023-04-01T05:22:12.101Z,99201.25
2023-04-01T05:24:39.875Z,99202.19
2023-04-01T05:27:07.482Z,99200.47
2023-04-01T05:29:38.652Z,99209.28
2023-04-01T05:32:12.210Z,99214.50
2023-04-01T05:34:39.904Z,99212.72
2023-04-01T05:37:08.316Z,99222.44
2023-04-01T05:39:39.802Z,99222.38
2023-04-01T05:42:09.326Z,99227.63
2023-04-01T05:44:37.361Z,99229.41
2023-04-01T05:47:07.577Z,99237.28
2023-04-01T05:49:36.406Z,99232.03
2023-04-01T05:52:05.147Z,99236.34
2023-04-01T05:54:35.893Z,99231.94
2023-04-01T05:57:03.579Z,99242.38
2023-04-01T05:59:32.336Z,99239.75
2023-04-01T06:02:00.369Z,99244.91
2023-04-01T06:04:35.750Z,99245.81
2023-04-01T06:07:12.978Z,99251.84
2023-04-01T06:09:41.099Z,99256.19
2023-04-01T06:12:08.783Z,99257.88
2023-04-01T06:15:14.625Z,99258.59
2023-04-01T06:18:19.391Z,99263.00
2023-04-01T06:21:09.197Z,99269.91
2023-04-01T06:24:02.029Z,99277.72
2023-04-01T06:26:42.903Z,99289.94
2023-04-01T06:29:55.160Z,99280.22
2023-04-01T06:32:40.479Z,99293.53
2023-04-01T06:35:44.801Z,99296.88
2023-04-01T06:38:42.877Z,99298.38
2023-04-01T06:41:46.974Z,99299.13
2023-04-01T06:45:01.190Z,99303.44
2023-04-01T06:48:16.950Z,99310.41
2023-04-01T06:51:26.494Z,99314.59
2023-04-01T06:54:32.150Z,99317.84
2023-04-01T06:57:42.106Z,99326.34
2023-04-01T07:00:22.149Z,99324.50
2023-04-01T07:03:11.668Z,99331.31
2023-04-01T07:05:40.983Z,99335.50
2023-04-01T07:08:20.282Z,99338.81
2023-04-01T07:11:10.075Z,99337.81
2023-04-01T07:14:21.846Z,99341.22
2023-04-01T07:16:59.795Z,99345.47
2023-04-01T07:20:07.612Z,99353.97
2023-04-01T07:22:45.661Z,99347.84
2023-04-01T07:25:35.974Z,99353.81
2023-04-01T07:28:23.490Z,99360.78
2023-04-01T07:31:34.633Z,99360.63
2023-04-01T07:34:22.183Z,99374.41
2023-04-01T07:37:19.264Z,99378.72
2023-04-01T07:40:21.648Z,99376.72
2023-04-01T07:43:06.155Z,99379.97
2023-04-01T07:46:20.235Z,99389.38
2023-04-01T07:49:22.432Z,99390.22
2023-04-01T07:52:13.557Z,99392.03
2023-04-01T07:55:05.651Z,99408.31
2023-04-01T07:58:09.297Z,99400.31
2023-04-01T08:00:57.387Z,99406.34
2023-04-01T08:04:02.076Z,99408.81
2023-04-01T08:06:42.747Z,99421.88
2023-04-01T08:09:26.843Z,99425.44
2023-04-01T08:13:12.704Z,99421.94
2023-04-01T08:16:51.575Z,99431.00
2023-04-01T08:19:53.173Z,99433.63
2023-04-01T08:22:30.261Z,99438.00
2023-04-01T08:25:08.591Z,99444.19
2023-04-01T08:27:44.551Z,99447.06
2023-04-01T08:30:27.571Z,99454.06
2023-04-01T08:33:06.666Z,99458.47
2023-04-01T08:35:49.985Z,99461.94
2023-04-01T08:38:30.486Z,99461.03
2023-04-01T08:41:34.905Z,99465.50
2023-04-01T08:44:51.942Z,99476.00
2023-04-01T08:47:43.372Z,99475.06
2023-04-01T08:50:33.111Z,99475.31
2023-04-01T08:54:08.381Z,99484.91
2023-04-01T08:57:16.174Z,99491.78
2023-04-01T09:00:39.693Z,99491.78
2023-04-01T09:03:35.664Z,99504.91
2023-04-01T09:06:25.683Z,99505.69
2023-04-01T09:09:06.902Z,99509.16
2023-04-01T09:12:25.317Z,99514.34
2023-04-01T09:15:08.205Z,99516.03
2023-04-01T09:18:02.386Z,99525.66
2023-04-01T09:21:22.274Z,99522.00
2023-04-01T09:24:14.738Z,99530.75
2023-04-01T09:27:39.854Z,99526.25
2023-04-01T09:30:25.730Z,99537.72
2023-04-01T09:33:02.287Z,99542.97
2023-04-01T09:36:08.736Z,99539.34
2023-04-01T09:39:24.383Z,99537.72
2023-04-01T09:42:14.688Z,99553.47
2023-04-01T09:45:28.532Z,99552.53
2023-04-01T09:48:51.060Z,99549.78
2023-04-01T09:51:46.645Z,99559.34
2023-04-01T09:54:49.074Z,99562.75
2023-04-01T09:57:57.162Z,99567.91
2023-04-01T10:01:33.078Z,99570.19
2023-04-01T10:04:38.415Z,99578.75
2023-04-01T10:07:31.032Z,99575.84
2023-04-01T10:10:32.147Z,99576.50
2023-04-01T10:13:30.401Z,99576.31
2023-04-01T10:16:43.584Z,99590.19
2023-04-01T10:19:50.272Z,99590.91
2023-04-01T10:22:43.318Z,99594.31
2023-04-01T10:26:01.575Z,99595.09
2023-04-01T10:29:03.931Z,99602.13
2023-04-01T10:32:12.000Z,99605.84
2023-04-01T10:35:54.300Z,99606.69
2023-04-01T10:39:21.171Z,99608.38
2023-04-01T10:42:20.169Z,99611.16
2023-04-01T10:45:48.635Z,99617.41
2023-04-01T10:49:24.516Z,99618.25
2023-04-01T10:52:19.994Z,99624.31
2023-04-01T10:55:31.792Z,99626.88
2023-04-01T10:58:56.066Z,99637.09
2023-04-01T11:02:10.171Z,99623.84
2023-04-01T11:05:25.536Z,99631.53
2023-04-01T11:08:23.309Z,99635.84
2023-04-01T11:11:28.271Z,99623.41
2023-04-01T11:14:21.617Z,99640.75
2023-04-01T11:17:20.849Z,99644.16
2023-04-01T11:20:14.901Z,99649.38
2023-04-01T11:22:59.350Z,99642.16
2023-04-01T11:25:54.232Z,99643.63
2023-04-01T11:28:50.066Z,99641.41
2023-04-01T11:31:56.196Z,99655.81
2023-04-01T11:34:44.740Z,99662.66
2023-04-01T11:37:44.513Z,99660.78
2023-04-01T11:41:09.746Z,99661.56
2023-04-01T11:44:25.172Z,99666.97
2023-04-01T11:47:36.948Z,99677.59
2023-04-01T11:50:07.484Z,99676.03
2023-04-01T11:53:45.593Z,99680.38
2023-04-01T11:56:35.918Z,99677.78
2023-04-01T11:59:15.483Z,99683.84
2023-04-01T12:02:21.083Z,99693.22
2023-04-01T12:05:18.694Z,99701.97
2023-04-01T12:08:10.587Z,99705.38
2023-04-01T12:10:52.510Z,99709.19
2023-04-01T12:13:51.088Z,99714.56
2023-04-01T12:17:23.044Z,99715.59
2023-04-01T12:20:13.735Z,99718.94
2023-04-01T12:23:07.284Z,99722.94
2023-04-01T12:26:00.645Z,99723.59
2023-04-01T12:29:05.126Z,99724.13
2023-04-01T12:31:44.795Z,99729.81
2023-04-01T12:34:36.598Z,99725.63
2023-04-01T12:37:29.825Z,99733.28
2023-04-01T12:40:25.153Z,99734.84
2023-04-01T12:43:24.296Z,99731.28
2023-04-01T12:46:48.214Z,99735.56
2023-04-01T12:49:56.508Z,99741.66
2023-04-01T12:53:10.873Z,99754.16
2023-04-01T12:55:45.395Z,99747.22
2023-04-01T12:58:53.558Z,99757.69
2023-04-01T13:01:36.775Z,99757.63
2023-04-01T13:04:39.581Z,99764.28
2023-04-01T13:07:25.397Z,99762.28
2023-04-01T13:10:04.670Z,99769.25
2023-04-01T13:13:13.928Z,99771.66
2023-04-01T13:16:04.500Z,99771.66
2023-04-01T13:19:00.595Z,99776.16
2023-04-01T13:21:52.430Z,99781.81
2023-04-01T13:24:37.206Z,99777.16
2023-04-01T13:27:30.657Z,99784.50
2023-04-01T13:30:38.303Z,99788.06
2023-04-01T13:33:55.965Z,99791.53
2023-04-01T13:36:56.176Z,99793.56
2023-04-01T13:39:37.259Z,99802.53
2023-04-01T13:42:25.813Z,99797.41
2023-04-01T13:45:15.967Z,99801.09
2023-04-01T13:48:24.550Z,99802.94
2023-04-01T13:51:32.245Z,99813.66
2023-04-01T13:54:39.117Z,99808.69
2023-04-01T13:57:39.192Z,99815.00
2023-04-01T14:00:55.293Z,99815.06
2023-04-01T14:03:58.554Z,99827.38
2023-04-01T14:06:47.210Z,99827.59
2023-04-01T14:09:20.492Z,99834.78
2023-04-01T14:12:23.509Z,99831.44
2023-04-01T14:15:37.874Z,99843.81
2023-04-01T14:18:25.010Z,99836.84
2023-04-01T14:21:23.944Z,99846.59
2023-04-01T14:24:29.073Z,99851.13
2023-04-01T14:28:07.335Z,99851.25
2023-04-01T14:30:52.712Z,99853.06
2023-04-01T14:33:27.145Z,99864.28
2023-04-01T14:36:48.269Z,99859.81
2023-04-01T14:39:44.691Z,99857.19
2023-04-01T14:42:48.892Z,99866.88
2023-04-01T14:45:56.859Z,99858.88
2023-04-01T14:48:35.736Z,99863.22
2023-04-01T14:51:31.180Z,99865.88
2023-04-01T14:54:34.458Z,99870.13
2023-04-01T14:57:25.034Z,99879.09
2023-04-01T15:00:02.533Z,99877.38
2023-04-01T15:03:27.880Z,99886.19
2023-04-01T15:06:36.910Z,99886.19
2023-04-01T15:09:47.218Z,99887.13
2023-04-01T15:12:45.617Z,99894.16
2023-04-01T15:15:21.210Z,99898.50
2023-04-01T15:18:11.434Z,99899.06
2023-04-01T15:21:23.371Z,99908.69
2023-04-01T15:24:26.058Z,99914.66
2023-04-01T15:27:18.304Z,99911.94
2023-04-01T15:30:02.210Z,99918.06
2023-04-01T15:33:08.417Z,99917.09
2023-04-01T15:35:58.407Z,99918.06
2023-04-01T15:38:52.481Z,99930.44
2023-04-01T15:42:10.358Z,99931.50
2023-04-01T15:44:52.911Z,99931.72
2023-04-01T15:47:26.632Z,99933.50
2023-04-01T15:50:12.862Z,99938.81
2023-04-01T15:52:48.145Z,99942.50
2023-04-01T15:55:51.253Z,99952.25
2023-04-01T15:59:01.867Z,99946.34
2023-04-01T16:02:18.193Z,99956.19
2023-04-01T16:05:23.004Z,99961.59
2023-04-01T16:08:08.616Z,99965.19
2023-04-01T16:11:15.835Z,99962.66
2023-04-01T16:14:34.220Z,99969.03
2023-04-01T16:17:42.828Z,99969.09
2023-04-01T16:20:35.594Z,99980.53
2023-04-01T16:23:19.720Z,99982.25
2023-04-01T16:26:03.753Z,99985.72
2023-04-01T16:28:51.403Z,99991.84
2023-04-01T16:31:58.341Z,99990.91
2023-04-01T16:34:42.566Z,99995.38
2023-04-01T16:37:37.226Z,99997.16
2023-04-01T16:40:45.582Z,100003.28
2023-04-01T16:43:36.131Z,100016.44
2023-04-01T16:46:33.790Z,100019.06
2023-04-01T16:49:12.209Z,100020.94
2023-04-01T16:51:46.058Z,100026.22
2023-04-01T16:54:22.534Z,100031.34
2023-04-01T16:57:03.522Z,100033.84
2023-04-01T17:00:03.150Z,100041.81
2023-04-01T17:02:52.822Z,100045.31
2023-04-01T17:05:38.346Z,100047.94
2023-04-01T17:08:36.517Z,100061.94
2023-04-01T17:11:21.966Z,100066.28
2023-04-01T17:14:56.846Z,100072.34
2023-04-01T17:17:46.251Z,100075.88
2023-04-01T17:20:28.764Z,100089.75
2023-04-01T17:23:22.438Z,100095.94
2023-04-01T17:26:18.670Z,100094.28
2023-04-01T17:28:58.541Z,100103.16
2023-04-01T17:31:47.721Z,100112.03
2023-04-01T17:34:42.262Z,100106.88
2023-04-01T17:37:43.842Z,100124.50
2023-04-01T17:40:29.625Z,100129.03
2023-04-01T17:43:21.569Z,100136.13
2023-04-01T17:45:57.276Z,100140.81
2023-04-01T17:48:51.062Z,100145.19
2023-04-01T17:51:55.736Z,100153.97
2023-04-01T17:54:41.230Z,100159.22
2023-04-01T17:57:44.867Z,100173.31
2023-04-01T18:00:30.083Z,100177.94
2023-04-01T18:03:34.127Z,100181.72
2023-04-01T18:06:36.101Z,100196.06
2023-04-01T18:09:51.241Z,100200.72
2023-04-01T18:12:41.884Z,100196.69
2023-04-01T18:15:29.394Z,100211.72
2023-04-01T18:18:20.513Z,100217.13
2023-04-01T18:21:00.349Z,100225.13
2023-04-01T18:23:52.113Z,100235.63
2023-04-01T18:26:38.834Z,100241.84
2023-04-01T18:29:40.673Z,100250.59
2023-04-01T18:32:36.826Z,100254.09
2023-04-01T18:35:57.391Z,100267.34
2023-04-01T18:38:36.427Z,100275.44
2023-04-01T18:41:29.895Z,100288.66
2023-04-01T18:44:31.854Z,100290.59
2023-04-01T18:47:46.737Z,100290.78
2023-04-01T18:50:50.827Z,100299.66
2023-04-01T18:53:39.660Z,100312.03
2023-04-01T18:56:26.239Z,100314.66
2023-04-01T18:59:08.273Z,100310.41
2023-04-01T19:02:11.163Z,100328.94
2023-04-01T19:04:46.118Z,100336.06
2023-04-01T19:07:46.552Z,100345.81
2023-04-01T19:10:49.650Z,100349.44
2023-04-01T19:13:59.934Z,100361.78
2023-04-01T19:17:08.570Z,100368.00
2023-04-01T19:19:49.576Z,100369.84
2023-04-01T19:22:32.252Z,100383.06
2023-04-01T19:25:32.396Z,100380.53
2023-04-01T19:28:23.598Z,100392.91
2023-04-01T19:31:03.052Z,100393.09
2023-04-01T19:34:26.408Z,100404.53
2023-04-01T19:37:03.183Z,100403.69
2023-04-01T19:39:53.462Z,100401.13
2023-04-01T19:42:40.822Z,100414.28
2023-04-01T19:45:14.977Z,100416.06
2023-04-01T19:47:57.478Z,100420.50
2023-04-01T19:50:36.595Z,100429.44
2023-04-01T19:53:24.898Z,100437.41
2023-04-01T19:56:17.676Z,100446.19
2023-04-01T19:58:49.014Z,100448.06
2023-04-01T20:01:43.698Z,100460.47
2023-04-01T20:04:29.968Z,100462.44
2023-04-01T20:07:06.729Z,100466.03
2023-04-01T20:09:56.021Z,100475.69
2023-04-01T20:12:36.163Z,100480.16
2023-04-01T20:15:21.408Z,100493.41
2023-04-01T20:17:53.141Z,100491.66
2023-04-01T20:20:27.014Z,100498.63
2023-04-01T20:23:40.985Z,100507.34
2023-04-01T20:26:13.908Z,100510.94
2023-04-01T20:29:23.152Z,100516.19
2023-04-01T20:32:26.396Z,100526.78
2023-04-01T20:35:28.217Z,100534.72
2023-04-01T20:38:14.001Z,100535.69
2023-04-01T20:40:50.648Z,100548.75
2023-04-01T20:43:30.170Z,100546.19
2023-04-01T20:46:17.663Z,100552.34
2023-04-01T20:49:06.562Z,100560.19
2023-04-01T20:51:44.011Z,100564.59
2023-04-01T20:54:55.152Z,100573.31
2023-04-01T20:57:51.750Z,100583.84
2023-04-01T21:00:38.008Z,100583.03
2023-04-01T21:03:46.614Z,100583.13
2023-04-01T21:06:28.917Z,100601.47
2023-04-01T21:09:41.988Z,100600.63
2023-04-01T21:12:29.792Z,100606.88
2023-04-01T21:15:41.018Z,100611.34
2023-04-01T21:18:46.119Z,100617.47
2023-04-01T21:21:35.540Z,100619.28
2023-04-01T21:24:21.285Z,100630.69
2023-04-01T21:27:16.846Z,100635.97
2023-04-01T21:30:09.246Z,100640.44
2023-04-01T21:33:27.328Z,100652.75
2023-04-01T21:36:36.810Z,100654.59
2023-04-01T21:39:37.836Z,100670.34
2023-04-01T21:42:46.140Z,100674.75
2023-04-01T21:45:25.256Z,100676.59
2023-04-01T21:48:29.649Z,100685.34
2023-04-01T21:51:47.044Z,100685.44
2023-04-01T21:54:52.922Z,100695.97
2023-04-01T21:57:50.342Z,100715.19
2023-04-01T22:00:32.575Z,100699.50
2023-04-01T22:03:39.870Z,100711.78
2023-04-01T22:06:58.426Z,100725.84
2023-04-01T22:09:46.036Z,100731.09
2023-04-01T22:12:29.403Z,100739.88
2023-04-01T22:15:18.186Z,100736.41
2023-04-01T22:18:29.963Z,100746.06
2023-04-01T22:21:17.372Z,100748.75
2023-04-01T22:24:21.525Z,100757.47
2023-04-01T22:27:27.263Z,100760.19
2023-04-01T22:30:32.021Z,100773.34
2023-04-01T22:33:58.630Z,100767.28
2023-04-01T22:36:57.538Z,100781.28
2023-04-01T22:39:59.656Z,100784.88
2023-04-01T22:42:39.253Z,100791.97
2023-04-01T22:45:46.465Z,100798.13
2023-04-01T22:48:22.315Z,100804.25
2023-04-01T22:51:21.544Z,100813.00
2023-04-01T22:54:12.953Z,100813.03
2023-04-01T22:56:51.541Z,100813.94
2023-04-01T22:59:44.135Z,100816.56
2023-04-01T23:02:34.125Z,100827.00
2023-04-01T23:05:06.370Z,100820.06
2023-04-01T23:08:03.807Z,100844.47
2023-04-01T23:10:48.008Z,100833.16
2023-04-01T23:13:30.458Z,100841.84
2023-04-01T23:15:59.489Z,100850.59
2023-04-01T23:18:57.322Z,100853.19
2023-04-01T23:21:35.569Z,100849.72
2023-04-01T23:24:31.741Z,100852.41
2023-04-01T23:27:24.774Z,100862.03
2023-04-01T23:29:53.552Z,100876.91
2023-04-01T23:32:27.197Z,100869.03
2023-04-01T23:34:59.378Z,100881.25
2023-04-01T23:37:28.343Z,100884.75
2023-04-01T23:39:59.596Z,100885.66
2023-04-01T23:42:32.223Z,100892.66
2023-04-01T23:45:05.786Z,100897.88
2023-04-01T23:47:39.563Z,100901.41
2023-04-01T23:50:22.019Z,100910.19
2023-04-01T23:53:02.964Z,100907.59
2023-04-01T23:55:35.823Z,100915.47
2023-04-01T23:58:28.164Z,100925.94
